createdAt,value
2018-09-10T00:01:09.384Z,101315.83
2018-09-10T00:03:38.479Z,101320.78
2018-09-10T00:06:07.629Z,101316.58
2018-09-10T00:08:36.873Z,101314.05
2018-09-10T00:11:06.371Z,101312.05
2018-09-10T00:13:35.305Z,101310.17
2018-09-10T00:16:04.400Z,101308.88
2018-09-10T00:18:33.738Z,101307.17
2018-09-10T00:21:03.223Z,101313.52
2018-09-10T00:23:33.176Z,101314.19
2018-09-10T00:26:02.379Z,101315.52
2018-09-10T00:28:31.758Z,101310.17
2018-09-10T00:31:01.534Z,101320.34
2018-09-10T00:33:30.740Z,101322.43
2018-09-10T00:36:00.064Z,101320.08
2018-09-10T00:38:29.298Z,101322.27
2018-09-10T00:40:58.900Z,101320.61
2018-09-10T00:43:28.101Z,101317.61
2018-09-10T00:45:57.420Z,101313.45
2018-09-10T00:48:27.275Z,101312.59
2018-09-10T00:50:56.686Z,101317.36
2018-09-10T00:53:25.941Z,101310.12
2018-09-10T00:55:56.035Z,101315.33
2018-09-10T00:58:25.131Z,101314.25
2018-09-10T01:00:54.667Z,101315.31
2018-09-10T01:03:23.719Z,101307.45
2018-09-10T01:05:53.166Z,101315.99
2018-09-10T01:08:22.431Z,101312.32
2018-09-10T01:10:52.511Z,101317.34
2018-09-10T01:13:21.450Z,101314.14
2018-09-10T01:15:50.759Z,101306.83
2018-09-10T01:18:20.347Z,101312.23
2018-09-10T01:20:49.471Z,101313.58
2018-09-10T01:23:18.964Z,101307.41
2018-09-10T01:25:48.265Z,101304.59
2018-09-10T01:28:17.339Z,101306.56
2018-09-10T01:30:46.290Z,101310.23
2018-09-10T01:33:20.710Z,101309.42
2018-09-10T01:35:49.975Z,101314.28
2018-09-10T01:38:19.247Z,101321.69
2018-09-10T01:40:48.984Z,101316.02
2018-09-10T01:43:18.059Z,101317.15
2018-09-10T01:45:47.562Z,101310.80
2018-09-10T01:48:17.876Z,101310.28
2018-09-10T01:50:47.431Z,101317.15
2018-09-10T01:53:16.698Z,101313.91
2018-09-10T01:55:46.260Z,101318.30
2018-09-10T01:58:15.510Z,101315.28
2018-09-10T02:00:44.817Z,101309.05
2018-09-10T02:03:14.303Z,101309.80
2018-09-10T02:05:43.850Z,101315.66
2018-09-10T02:08:13.332Z,101321.00
2018-09-10T02:10:42.879Z,101317.14
2018-09-10T02:13:12.141Z,101312.27
2018-09-10T02:15:46.543Z,101317.66
2018-09-10T02:18:15.490Z,101311.84
2018-09-10T02:20:44.834Z,101306.87
2018-09-10T02:23:14.054Z,101305.70
2018-09-10T02:25:43.332Z,101303.31
2018-09-10T02:28:12.313Z,101300.98
2018-09-10T02:30:41.563Z,101302.78
2018-09-10T02:33:11.452Z,101305.72
2018-09-10T02:35:40.541Z,101297.39
2018-09-10T02:38:10.841Z,101305.19
2018-09-10T02:40:40.202Z,101314.97
2018-09-10T02:43:10.633Z,101344.92
2018-09-10T02:45:40.712Z,101328.32
2018-09-10T02:48:10.714Z,101365.06
2018-09-10T02:50:40.224Z,101341.34
2018-09-10T02:53:09.807Z,101365.84
2018-09-10T02:55:39.269Z,101365.80
2018-09-10T02:58:08.509Z,101351.45
2018-09-10T03:00:38.102Z,101349.92
2018-09-10T03:03:07.367Z,101369.95
2018-09-10T03:05:36.636Z,101349.53
2018-09-10T03:08:06.618Z,101345.34
2018-09-10T03:10:35.845Z,101346.83
2018-09-10T03:13:05.208Z,101341.23
2018-09-10T03:15:34.470Z,101347.81
2018-09-10T03:18:03.597Z,101347.47
2018-09-10T03:20:32.659Z,101339.72
2018-09-10T03:23:02.326Z,101346.34
2018-09-10T03:25:31.914Z,101345.06
2018-09-10T03:28:01.139Z,101341.83
2018-09-10T03:30:31.630Z,101332.63
2018-09-10T03:33:00.792Z,101339.70
2018-09-10T03:35:29.933Z,101341.26
2018-09-10T03:38:00.053Z,101344.61
2018-09-10T03:40:29.307Z,101353.62
2018-09-10T03:42:58.447Z,101344.55
2018-09-10T03:45:28.018Z,101340.61
2018-09-10T03:47:57.387Z,101333.25
2018-09-10T03:50:26.892Z,101343.92
2018-09-10T03:52:56.009Z,101346.57
2018-09-10T03:55:24.996Z,101343.41
2018-09-10T03:57:54.391Z,101337.88
2018-09-10T04:00:23.342Z,101338.47
2018-09-10T04:02:52.388Z,101346.84
2018-09-10T04:05:22.107Z,101349.34
2018-09-10T04:07:51.203Z,101353.70
2018-09-10T04:10:20.664Z,101352.50
2018-09-10T04:12:50.235Z,101348.36
2018-09-10T04:15:19.926Z,101357.89
2018-09-10T04:17:49.014Z,101353.50
2018-09-10T04:20:18.091Z,101356.57
2018-09-10T04:22:48.027Z,101364.56
2018-09-10T04:25:17.324Z,101361.64
2018-09-10T04:27:47.441Z,101365.40
2018-09-10T04:30:16.553Z,101376.09
2018-09-10T04:32:46.003Z,101391.07
2018-09-10T04:35:15.559Z,101385.05
2018-09-10T04:37:45.051Z,101389.20
2018-09-10T04:40:14.379Z,101384.95
2018-09-10T04:42:43.891Z,101386.49
2018-09-10T04:45:13.210Z,101395.08
2018-09-10T04:47:42.471Z,101407.02
2018-09-10T04:50:11.561Z,101405.55
2018-09-10T04:52:40.631Z,101398.83
2018-09-10T04:55:10.177Z,101407.97
2018-09-10T04:57:39.678Z,101411.68
2018-09-10T05:00:09.610Z,101417.18
2018-09-10T05:02:38.986Z,101414.48
2018-09-10T05:05:08.154Z,101421.75
2018-09-10T05:07:37.794Z,101411.14
2018-09-10T05:10:07.448Z,101418.22
2018-09-10T05:12:36.498Z,101414.20
2018-09-10T05:15:05.974Z,101420.37
2018-09-10T05:17:35.056Z,101422.59
2018-09-10T05:20:04.212Z,101418.02
2018-09-10T05:22:33.248Z,101425.83
2018-09-10T05:25:02.170Z,101436.39
2018-09-10T05:27:31.235Z,101437.59
2018-09-10T05:30:00.660Z,101442.39
2018-09-10T05:32:29.863Z,101446.00
2018-09-10T05:34:59.647Z,101448.81
2018-09-10T05:37:28.853Z,101434.77
2018-09-10T05:39:58.189Z,101446.14
2018-09-10T05:42:27.236Z,101445.86
2018-09-10T05:44:56.378Z,101445.91
2018-09-10T05:47:30.745Z,101452.93
2018-09-10T05:49:59.868Z,101451.80
2018-09-10T05:52:28.863Z,101451.23
2018-09-10T05:54:58.065Z,101464.88
2018-09-10T05:57:27.227Z,101455.16
2018-09-10T05:59:56.492Z,101465.72
2018-09-10T06:02:25.757Z,101460.33
2018-09-10T06:04:55.919Z,101456.70
2018-09-10T06:07:25.227Z,101464.61
2018-09-10T06:09:54.471Z,101457.92
2018-09-10T06:12:23.820Z,101461.13
2018-09-10T06:14:53.064Z,101456.78
2018-09-10T06:17:22.002Z,101462.84
2018-09-10T06:19:51.430Z,101458.99
2018-09-10T06:22:21.704Z,101459.20
2018-09-10T06:24:51.121Z,101456.54
2018-09-10T06:27:20.849Z,101456.59
2018-09-10T06:29:50.712Z,101450.22
2018-09-10T06:32:20.102Z,101455.03
2018-09-10T06:34:49.936Z,101470.41
2018-09-10T06:37:18.896Z,101467.02
2018-09-10T06:39:48.812Z,101475.91
2018-09-10T06:42:18.708Z,101483.73
2018-09-10T06:44:49.192Z,101490.25
2018-09-10T06:47:18.696Z,101486.69
2018-09-10T06:49:48.079Z,101497.43
2018-09-10T06:52:17.281Z,101495.80
2018-09-10T06:54:46.387Z,101487.55
2018-09-10T06:57:15.897Z,101494.34
2018-09-10T06:59:45.042Z,101502.60
2018-09-10T07:02:14.465Z,101504.33
2018-09-10T07:04:43.571Z,101492.09
2018-09-10T07:07:13.495Z,101482.97
2018-09-10T07:09:42.591Z,101492.70
2018-09-10T07:12:12.075Z,101500.25
2018-09-10T07:14:41.203Z,101494.86
2018-09-10T07:17:10.361Z,101496.39
2018-09-10T07:19:39.587Z,101494.58
2018-09-10T07:22:08.894Z,101491.30
2018-09-10T07:24:38.244Z,101481.13
2018-09-10T07:27:07.666Z,101478.81
2018-09-10T07:29:36.966Z,101473.80
2018-09-10T07:32:06.095Z,101467.46
2018-09-10T07:34:35.064Z,101467.21
2018-09-10T07:37:04.495Z,101466.14
2018-09-10T07:39:34.477Z,101474.68
2018-09-10T07:42:03.502Z,101475.64
2018-09-10T07:44:32.822Z,101477.50
2018-09-10T07:47:02.987Z,101469.76
2018-09-10T07:49:32.922Z,101469.75
2018-09-10T07:52:02.359Z,101471.60
2018-09-10T07:54:31.635Z,101475.98
2018-09-10T07:57:02.049Z,101479.80
2018-09-10T07:59:31.244Z,101478.16
2018-09-10T08:02:00.358Z,101470.83
2018-09-10T08:04:30.231Z,101480.97
2018-09-10T08:07:00.012Z,101469.78
2018-09-10T08:09:29.102Z,101469.41
2018-09-10T08:11:58.356Z,101452.36
2018-09-10T08:14:27.461Z,101453.61
2018-09-10T08:16:57.233Z,101450.27
2018-09-10T08:19:26.469Z,101448.02
2018-09-10T08:21:55.927Z,101445.75
2018-09-10T08:24:25.137Z,101451.97
2018-09-10T08:26:58.727Z,101456.77
2018-09-10T08:29:28.499Z,101470.92
2018-09-10T08:31:57.835Z,101484.05
2018-09-10T08:34:26.978Z,101489.32
2018-09-10T08:36:56.111Z,101497.45
2018-09-10T08:39:25.206Z,101496.16
2018-09-10T08:41:54.291Z,101506.95
2018-09-10T08:44:23.811Z,101506.85
2018-09-10T08:46:53.084Z,101511.14
2018-09-10T08:49:22.182Z,101508.16
2018-09-10T08:51:51.258Z,101508.48
2018-09-10T08:54:20.813Z,101487.66
2018-09-10T08:56:50.358Z,101472.98
2018-09-10T08:59:19.771Z,101466.55
2018-09-10T09:01:49.080Z,101471.70
2018-09-10T09:04:18.178Z,101468.23
2018-09-10T09:06:47.842Z,101463.12
2018-09-10T09:09:17.062Z,101462.45
2018-09-10T09:11:46.492Z,101461.68
2018-09-10T09:14:15.571Z,101453.92
2018-09-10T09:16:45.939Z,101456.45
2018-09-10T09:19:15.368Z,101465.62
2018-09-10T09:21:44.970Z,101466.03
2018-09-10T09:24:14.230Z,101472.70
2018-09-10T09:26:43.292Z,101475.74
2018-09-10T09:29:13.050Z,101480.92
2018-09-10T09:31:42.349Z,101479.84
2018-09-10T09:34:11.538Z,101475.99
2018-09-10T09:36:45.685Z,101476.88
2018-09-10T09:41:21.683Z,101479.57
2018-09-10T09:43:56.454Z,101472.82
2018-09-10T09:46:25.655Z,101469.69
2018-09-10T09:48:55.175Z,101468.13
2018-09-10T09:51:24.450Z,101469.59
2018-09-10T09:53:53.379Z,101469.38
2018-09-10T09:56:23.654Z,101462.58
2018-09-10T09:58:52.937Z,101465.31
2018-09-10T10:01:23.855Z,101465.52
2018-09-10T10:03:57.992Z,101457.44
2018-09-10T10:06:27.267Z,101462.12
2018-09-10T10:08:56.496Z,101467.33
2018-09-10T10:11:25.794Z,101461.73
2018-09-10T10:13:55.276Z,101461.83
2018-09-10T10:16:24.450Z,101462.59
2018-09-10T10:18:53.372Z,101468.45
2018-09-10T10:21:22.569Z,101458.90
2018-09-10T10:23:51.749Z,101459.14
2018-09-10T10:26:20.987Z,101454.16
2018-09-10T10:28:50.963Z,101457.16
2018-09-10T10:31:20.433Z,101453.44
2018-09-10T10:33:49.537Z,101451.77
2018-09-10T10:36:18.858Z,101452.19
2018-09-10T10:38:49.142Z,101445.62
2018-09-10T10:41:18.220Z,101448.55
2018-09-10T10:43:47.903Z,101450.61
2018-09-10T10:46:18.451Z,101436.47
2018-09-10T10:48:47.714Z,101440.72
2018-09-10T10:51:16.645Z,101434.44
2018-09-10T10:53:46.133Z,101438.48
2018-09-10T10:56:15.246Z,101450.45
2018-09-10T10:58:44.598Z,101442.09
2018-09-10T11:01:15.239Z,101447.36
2018-09-10T11:03:44.187Z,101445.55
2018-09-10T11:06:13.654Z,101451.80
2018-09-10T11:08:43.396Z,101443.33
2018-09-10T11:11:12.775Z,101447.84
2018-09-10T11:13:41.755Z,101444.58
2018-09-10T11:16:10.817Z,101438.77
2018-09-10T11:18:40.959Z,101444.36
2018-09-10T11:21:11.122Z,101447.84
2018-09-10T11:23:40.630Z,101447.31
2018-09-10T11:26:09.879Z,101448.01
2018-09-10T11:28:39.034Z,101435.34
2018-09-10T11:31:08.478Z,101442.38
2018-09-10T11:33:37.959Z,101436.97
2018-09-10T11:36:07.617Z,101444.45
2018-09-10T11:38:36.870Z,101437.78
2018-09-10T11:41:06.658Z,101438.74
2018-09-10T11:43:36.978Z,101437.66
2018-09-10T11:46:06.182Z,101431.03
2018-09-10T11:48:35.735Z,101421.52
2018-09-10T11:51:05.249Z,101421.60
2018-09-10T11:53:34.957Z,101411.40
2018-09-10T11:56:04.210Z,101414.86
2018-09-10T11:58:33.494Z,101417.46
2018-09-10T12:01:03.047Z,101406.44
2018-09-10T12:03:33.121Z,101399.28
2018-09-10T12:06:02.849Z,101402.02
2018-09-10T12:08:32.530Z,101394.88
2018-09-10T12:11:01.850Z,101398.68
2018-09-10T12:13:31.352Z,101392.19
2018-09-10T12:16:00.592Z,101388.33
2018-09-10T12:18:29.776Z,101398.76
2018-09-10T12:20:59.249Z,101397.94
2018-09-10T12:23:28.332Z,101400.90
2018-09-10T12:25:58.109Z,101400.72
2018-09-10T12:28:27.334Z,101400.94
2018-09-10T12:30:56.547Z,101402.64
2018-09-10T12:33:25.762Z,101399.42
2018-09-10T12:35:55.114Z,101404.30
2018-09-10T12:38:24.615Z,101407.23
2018-09-10T12:40:53.869Z,101420.16
2018-09-10T12:43:23.342Z,101415.77
2018-09-10T12:45:52.319Z,101418.79
2018-09-10T12:48:21.530Z,101424.70
2018-09-10T12:50:50.522Z,101421.53
2018-09-10T12:53:20.175Z,101422.80
2018-09-10T12:55:49.231Z,101430.50
2018-09-10T12:58:19.101Z,101441.66
2018-09-10T13:00:48.805Z,101445.65
2018-09-10T13:03:18.111Z,101452.91
2018-09-10T13:05:47.267Z,101455.62
2018-09-10T13:08:16.415Z,101469.80
2018-09-10T13:10:45.731Z,101459.55
2018-09-10T13:13:14.782Z,101459.17
2018-09-10T13:15:44.234Z,101458.95
2018-09-10T13:18:13.355Z,101461.02
2018-09-10T13:20:42.451Z,101458.53
2018-09-10T13:23:11.799Z,101462.09
2018-09-10T13:25:41.039Z,101462.50
2018-09-10T13:28:10.231Z,101460.59
2018-09-10T13:30:39.429Z,101465.80
2018-09-10T13:33:09.166Z,101453.85
2018-09-10T13:35:38.287Z,101458.43
2018-09-10T13:38:07.255Z,101454.70
2018-09-10T13:40:36.425Z,101450.02
2018-09-10T13:43:05.782Z,101445.55
2018-09-10T13:45:35.261Z,101452.46
2018-09-10T13:48:04.983Z,101452.19
2018-09-10T13:50:34.246Z,101442.70
2018-09-10T13:53:03.362Z,101442.86
2018-09-10T13:55:32.662Z,101439.16
2018-09-10T13:58:02.847Z,101437.65
2018-09-10T14:00:32.241Z,101444.91
2018-09-10T14:03:01.381Z,101438.44
2018-09-10T14:05:30.721Z,101441.04
2018-09-10T14:08:00.122Z,101445.72
2018-09-10T14:10:29.707Z,101443.83
2018-09-10T14:12:59.001Z,101437.70
2018-09-10T14:15:29.163Z,101429.47
2018-09-10T14:17:58.379Z,101446.13
2018-09-10T14:20:27.914Z,101446.45
2018-09-10T14:22:56.979Z,101442.47
2018-09-10T14:25:26.532Z,101439.73
2018-09-10T14:27:55.952Z,101449.27
2018-09-10T14:30:26.652Z,101440.61
2018-09-10T14:32:56.372Z,101437.56
2018-09-10T14:35:26.226Z,101438.08
2018-09-10T14:37:55.155Z,101445.05
2018-09-10T14:40:24.588Z,101440.06
2018-09-10T14:42:53.645Z,101436.70
2018-09-10T14:45:23.278Z,101433.92
2018-09-10T14:47:53.543Z,101426.46
2018-09-10T14:50:22.811Z,101426.00
2018-09-10T14:52:52.099Z,101427.61
2018-09-10T14:55:21.683Z,101417.06
2018-09-10T14:57:50.938Z,101423.39
2018-09-10T15:00:25.507Z,101430.08
2018-09-10T15:02:55.496Z,101425.59
2018-09-10T15:05:24.483Z,101426.02
2018-09-10T15:07:54.872Z,101434.77
2018-09-10T15:10:24.809Z,101435.06
2018-09-10T15:12:53.964Z,101441.45
2018-09-10T15:15:23.279Z,101448.53
2018-09-10T15:17:52.470Z,101452.41
2018-09-10T15:20:21.534Z,101451.38
2018-09-10T15:22:51.077Z,101454.72
2018-09-10T15:25:20.343Z,101462.33
2018-09-10T15:27:49.455Z,101464.31
2018-09-10T15:30:18.558Z,101476.12
2018-09-10T15:32:48.138Z,101477.17
2018-09-10T15:35:17.355Z,101471.66
2018-09-10T15:37:47.051Z,101476.52
2018-09-10T15:40:16.377Z,101477.31
2018-09-10T15:42:45.948Z,101473.38
2018-09-10T15:45:16.238Z,101468.52
2018-09-10T15:47:45.347Z,101470.63
2018-09-10T15:50:14.507Z,101476.19
2018-09-10T15:52:44.276Z,101481.06
2018-09-10T15:55:13.556Z,101488.23
2018-09-10T15:57:43.314Z,101482.70
2018-09-10T16:00:13.450Z,101477.75
2018-09-10T16:02:42.523Z,101488.59
2018-09-10T16:05:12.206Z,101487.09
2018-09-10T16:07:41.979Z,101483.02
2018-09-10T16:10:10.938Z,101476.73
2018-09-10T16:12:39.935Z,101465.67
2018-09-10T16:15:09.275Z,101479.64
2018-09-10T16:17:38.246Z,101475.42
2018-09-10T16:20:07.910Z,101468.77
2018-09-10T16:25:07.612Z,101477.91
2018-09-10T16:27:37.235Z,101472.84
2018-09-10T16:30:07.339Z,101479.73
2018-09-10T16:32:36.578Z,101476.34
2018-09-10T16:35:06.595Z,101478.31
2018-09-10T16:37:36.843Z,101471.91
2018-09-10T16:40:06.791Z,101475.35
2018-09-10T16:42:36.151Z,101477.91
2018-09-10T16:45:05.977Z,101468.36
2018-09-10T16:47:35.450Z,101472.52
2018-09-10T16:50:05.591Z,101468.58
2018-09-10T16:52:34.690Z,101465.79
2018-09-10T16:55:04.075Z,101464.13
2018-09-10T16:57:33.280Z,101468.02
2018-09-10T17:00:02.363Z,101461.97
2018-09-10T17:02:31.722Z,101465.89
2018-09-10T17:05:00.999Z,101464.88
2018-09-10T17:07:30.503Z,101461.41
2018-09-10T17:10:00.134Z,101459.66
2018-09-10T17:12:29.476Z,101465.05
2018-09-10T17:14:58.557Z,101466.48
2018-09-10T17:17:27.656Z,101467.77
2018-09-10T17:19:57.036Z,101468.66
2018-09-10T17:22:26.524Z,101460.11
2018-09-10T17:24:55.555Z,101460.26
2018-09-10T17:27:24.758Z,101460.92
2018-09-10T17:29:54.172Z,101459.24
2018-09-10T17:32:24.431Z,101463.35
2018-09-10T17:34:53.603Z,101460.97
2018-09-10T17:37:22.923Z,101465.45
2018-09-10T17:39:52.819Z,101462.91
2018-09-10T17:42:22.101Z,101475.85
2018-09-10T17:44:51.469Z,101476.75
2018-09-10T17:47:20.936Z,101476.61
2018-09-10T17:49:50.990Z,101481.51
2018-09-10T17:52:20.238Z,101486.45
2018-09-10T17:54:49.227Z,101475.41
2018-09-10T17:57:18.554Z,101488.39
2018-09-10T17:59:48.232Z,101490.55
2018-09-10T18:02:17.788Z,101487.57
2018-09-10T18:04:47.551Z,101487.81
2018-09-10T18:07:16.946Z,101500.44
2018-09-10T18:09:46.307Z,101504.89
2018-09-10T18:12:15.735Z,101506.41
2018-09-10T18:14:45.590Z,101513.96
2018-09-10T18:17:15.094Z,101521.95
2018-09-10T18:19:44.977Z,101519.17
2018-09-10T18:22:14.203Z,101519.88
2018-09-10T18:24:44.376Z,101520.42
2018-09-10T18:27:13.591Z,101526.57
2018-09-10T18:29:42.688Z,101535.14
2018-09-10T18:32:12.034Z,101532.58
2018-09-10T18:34:41.686Z,101535.42
2018-09-10T18:37:11.014Z,101543.38
2018-09-10T18:39:40.351Z,101539.67
2018-09-10T18:42:09.605Z,101545.39
2018-09-10T18:44:38.563Z,101550.61
2018-09-10T18:47:07.632Z,101550.97
2018-09-10T18:49:37.119Z,101552.80
2018-09-10T18:52:07.229Z,101554.67
2018-09-10T18:54:36.962Z,101564.45
2018-09-10T18:57:06.234Z,101562.94
2018-09-10T18:59:35.515Z,101568.02
2018-09-10T19:02:05.244Z,101572.91
2018-09-10T19:04:34.538Z,101556.47
2018-09-10T19:07:04.055Z,101570.92
2018-09-10T19:09:33.763Z,101568.25
2018-09-10T19:12:02.803Z,101564.05
2018-09-10T19:14:32.210Z,101560.52
2018-09-10T19:17:01.847Z,101559.53
2018-09-10T19:19:31.375Z,101566.62
2018-09-10T19:22:00.686Z,101568.44
2018-09-10T19:24:29.783Z,101577.31
2018-09-10T19:27:00.399Z,101573.62
2018-09-10T19:29:29.595Z,101567.42
2018-09-10T19:31:58.727Z,101568.09
2018-09-10T19:34:28.034Z,101569.95
2018-09-10T19:36:58.129Z,101570.61
2018-09-10T19:39:27.619Z,101567.42
2018-09-10T19:41:56.699Z,101567.25
2018-09-10T19:44:26.295Z,101567.59
2018-09-10T19:46:56.123Z,101566.22
2018-09-10T19:49:25.465Z,101562.39
2018-09-10T19:51:55.706Z,101559.70
2018-09-10T19:54:25.255Z,101553.45
2018-09-10T19:56:56.456Z,101560.49
2018-09-10T19:59:25.794Z,101560.35
2018-09-10T20:01:55.502Z,101553.13
2018-09-10T20:04:24.931Z,101548.77
2018-09-10T20:06:54.333Z,101548.61
2018-09-10T20:09:25.415Z,101543.05
2018-09-10T20:11:55.035Z,101536.84
2018-09-10T20:14:24.559Z,101543.52
2018-09-10T20:16:54.920Z,101530.08
2018-09-10T20:19:24.186Z,101535.72
2018-09-10T20:21:54.438Z,101527.30
2018-09-10T20:24:23.605Z,101519.45
2018-09-10T20:26:53.117Z,101524.16
2018-09-10T20:29:22.411Z,101526.02
2018-09-10T20:31:51.726Z,101516.63
2018-09-10T20:34:21.615Z,101516.25
2018-09-10T20:36:50.588Z,101519.13
2018-09-10T20:39:20.423Z,101522.19
2018-09-10T20:41:49.575Z,101530.92
2018-09-10T20:44:18.806Z,101534.00
2018-09-10T20:46:47.969Z,101535.99
2018-09-10T20:49:17.231Z,101539.17
2018-09-10T20:51:46.758Z,101543.02
2018-09-10T20:54:16.024Z,101542.99
2018-09-10T20:56:45.319Z,101550.71
2018-09-10T20:59:14.820Z,101558.45
2018-09-10T21:01:44.602Z,101555.97
2018-09-10T21:04:14.621Z,101564.84
2018-09-10T21:06:43.743Z,101564.75
2018-09-10T21:09:13.984Z,101561.12
2018-09-10T21:11:43.241Z,101559.76
2018-09-10T21:14:12.676Z,101565.12
2018-09-10T21:16:42.177Z,101568.31
2018-09-10T21:19:11.887Z,101571.18
2018-09-10T21:21:41.203Z,101565.27
2018-09-10T21:24:10.906Z,101567.06
2018-09-10T21:26:40.000Z,101573.76
2018-09-10T21:29:09.003Z,101575.17
2018-09-10T21:31:38.232Z,101576.32
2018-09-10T21:34:08.148Z,101572.26
2018-09-10T21:36:37.408Z,101569.76
2018-09-10T21:39:08.520Z,101574.75
2018-09-10T21:41:37.551Z,101583.44
2018-09-10T21:44:07.171Z,101587.33
2018-09-10T21:46:36.432Z,101589.86
2018-09-10T21:49:06.170Z,101590.76
2018-09-10T21:51:35.677Z,101587.08
2018-09-10T21:54:05.083Z,101586.31
2018-09-10T21:56:34.265Z,101588.45
2018-09-10T21:59:04.155Z,101580.86
2018-09-10T22:01:33.693Z,101584.44
2018-09-10T22:04:02.835Z,101588.98
2018-09-10T22:06:32.066Z,101590.08
2018-09-10T22:09:01.338Z,101588.06
2018-09-10T22:11:30.635Z,101587.50
2018-09-10T22:14:00.355Z,101591.76
2018-09-10T22:16:29.467Z,101593.15
2018-09-10T22:18:59.226Z,101602.73
2018-09-10T22:21:28.488Z,101599.42
2018-09-10T22:23:57.980Z,101598.75
2018-09-10T22:26:26.927Z,101604.54
2018-09-10T22:28:56.182Z,101605.02
2018-09-10T22:31:25.507Z,101606.69
2018-09-10T22:33:54.990Z,101615.11
2018-09-10T22:36:24.110Z,101614.06
2018-09-10T22:38:53.612Z,101612.96
2018-09-10T22:41:22.878Z,101610.23
2018-09-10T22:43:52.258Z,101608.59
2018-09-10T22:46:22.666Z,101603.06
2018-09-10T22:48:52.211Z,101607.90
2018-09-10T22:51:21.510Z,101607.08
2018-09-10T22:53:50.465Z,101608.41
2018-09-10T22:56:19.726Z,101603.53
2018-09-10T22:58:49.446Z,101604.73
2018-09-10T23:01:18.494Z,101605.30
2018-09-10T23:03:47.662Z,101596.11
2018-09-10T23:06:17.315Z,101593.02
2018-09-10T23:08:46.558Z,101588.47
2018-09-10T23:11:16.566Z,101582.64
2018-09-10T23:13:46.074Z,101588.38
2018-09-10T23:16:16.350Z,101587.98
2018-09-10T23:18:45.442Z,101587.53
2018-09-10T23:21:14.570Z,101588.72
2018-09-10T23:23:43.566Z,101592.59
2018-09-10T23:26:13.025Z,101592.93
2018-09-10T23:28:42.479Z,101595.76
2018-09-10T23:31:11.550Z,101596.68
2018-09-10T23:33:40.655Z,101593.89
2018-09-10T23:36:10.213Z,101595.95
2018-09-10T23:38:39.519Z,101599.52
2018-09-10T23:41:08.739Z,101600.30
2018-09-10T23:43:38.067Z,101598.51
2018-09-10T23:46:07.391Z,101603.53
2018-09-10T23:48:36.706Z,101596.20
2018-09-10T23:51:06.393Z,101599.55
2018-09-10T23:53:35.664Z,101599.66
2018-09-10T23:56:04.886Z,101590.39
2018-09-10T23:58:34.274Z,101595.20
